Time;durP1;ratioP1;P1;durP2;ratioP2;P2;SDS_P1;SDS_P2;PMS_P1;PMS_P2;Temp;Humidity;BMP_temperature;BMP_pressure;BME280_temperature;BME280_humidity;BME280_pressure;Samples;Min_cycle;Max_cycle;Signal;HPM_P1;HPM_P2
2023/09/24 00:01:02;;;;;;;38.50;36.50;;;;;;;22.94;100.00;100722.41;5032391;28;20069;-74
2023/09/24 00:03:29;;;;;;;32.03;30.13;;;;;;;22.85;100.00;100716.81;5039208;28;20069;-74
2023/09/24 00:05:58;;;;;;;36.33;34.33;;;;;;;22.84;100.00;100714.38;5031865;28;20050;-74
2023/09/24 00:08:24;;;;;;;32.30;30.50;;;;;;;22.77;100.00;100709.31;5036661;28;20048;-74
2023/09/24 00:10:53;;;;;;;31.80;29.90;;;;;;;22.73;100.00;100726.41;5041206;28;20849;-74
2023/09/24 00:13:21;;;;;;;34.60;32.60;;;;;;;22.74;100.00;100725.31;5040368;28;20049;-74
2023/09/24 00:16:09;;;;;;;34.67;32.72;;;;;;;22.59;100.00;100723.56;5024405;28;20469;-74
2023/09/24 00:18:36;;;;;;;32.13;30.23;;;;;;;22.55;100.00;100726.03;5033029;28;20133;-74
2023/09/24 00:21:04;;;;;;;38.83;36.50;;;;;;;22.53;100.00;100719.31;5025046;28;20050;-75
2023/09/24 00:23:30;;;;;;;33.30;31.30;;;;;;;22.50;100.00;100725.28;5029837;28;20049;-74
2023/09/24 00:25:58;;;;;;;37.58;34.72;;;;;;;22.51;100.00;100733.13;5026115;28;20442;-75
2023/09/24 00:28:25;;;;;;;33.75;31.75;;;;;;;22.44;100.00;100726.44;5020180;28;20060;-74
2023/09/24 00:30:55;;;;;;;33.45;31.35;;;;;;;22.48;100.00;100736.41;5028490;28;20050;-74
2023/09/24 00:33:23;;;;;;;32.85;30.88;;;;;;;22.39;100.00;100738.91;5029823;28;20046;-74
2023/09/24 00:35:50;;;;;;;37.92;34.90;;;;;;;22.19;100.00;100744.50;5031037;28;20051;-73
2023/09/24 00:38:18;;;;;;;38.10;36.00;;;;;;;22.02;100.00;100742.16;5031242;28;20136;-75
2023/09/24 00:40:59;;;;;;;34.90;32.88;;;;;;;21.82;100.00;100759.34;5028703;28;20586;-74
2023/09/24 00:43:30;;;;;;;27.52;25.73;;;;;;;21.42;100.00;100760.34;5030198;28;20041;-75
2023/09/24 00:45:58;;;;;;;30.05;28.15;;;;;;;21.38;100.00;100761.97;5030840;28;20045;-74
2023/09/24 00:48:30;;;;;;;30.95;29.10;;;;;;;21.76;100.00;100755.03;5026045;28;20053;-74
2023/09/24 00:50:58;;;;;;;32.13;30.23;;;;;;;22.00;100.00;100748.91;5023845;28;20037;-75
2023/09/24 00:53:31;;;;;;;32.60;30.80;;;;;;;22.16;100.00;100753.16;5018765;28;20049;-74
2023/09/24 00:55:58;;;;;;;35.50;33.30;;;;;;;22.04;100.00;100752.69;5030968;28;20057;-74
2023/09/24 00:58:27;;;;;;;31.08;29.13;;;;;;;21.91;100.00;100746.03;5027667;28;20049;-74
2023/09/24 01:00:55;;;;;;;36.17;34.17;;;;;;;21.47;100.00;100750.31;5030993;28;20512;-73
2023/09/24 01:03:23;;;;;;;36.08;32.97;;;;;;;21.11;100.00;100763.13;5027096;28;20057;-75
2023/09/24 01:05:54;;;;;;;31.92;30.02;;;;;;;20.87;100.00;100765.63;5030399;28;20049;-74
2023/09/24 01:08:23;;;;;;;36.92;34.17;;;;;;;20.52;100.00;100758.41;5030446;28;20141;-74
2023/09/24 01:10:50;;;;;;;34.60;32.40;;;;;;;20.44;100.00;100765.09;5030779;28;20041;-74
2023/09/24 01:13:20;;;;;;;37.88;35.05;;;;;;;20.32;100.00;100768.06;5030080;28;20057;-73
2023/09/24 01:15:55;;;;;;;34.33;32.22;;;;;;;20.40;100.00;100766.75;5030276;28;20045;-74
2023/09/24 01:18:23;;;;;;;34.25;32.15;;;;;;;20.51;100.00;100770.22;5030323;28;20484;-74
2023/09/24 01:20:51;;;;;;;31.20;29.20;;;;;;;20.47;100.00;100772.66;5029110;28;21037;-74
2023/09/24 01:23:19;;;;;;;29.13;26.80;;;;;;;20.57;100.00;100770.00;5029902;28;20060;-74
2023/09/24 01:25:46;;;;;;;32.35;30.30;;;;;;;20.68;100.00;100767.28;5028055;28;20543;-74
2023/09/24 01:28:14;;;;;;;35.70;33.60;;;;;;;20.88;100.00;100775.34;5020140;28;20053;-74
2023/09/24 01:30:43;;;;;;;33.13;31.23;;;;;;;21.15;100.00;100772.31;5030266;28;20098;-74
2023/09/24 01:33:18;;;;;;;37.25;34.33;;;;;;;20.99;100.00;100771.53;5029603;28;20056;-74
2023/09/24 01:35:45;;;;;;;38.72;36.53;;;;;;;21.07;100.00;100780.16;5025318;28;20060;-74
2023/09/24 01:38:13;;;;;;;33.38;31.27;;;;;;;20.95;100.00;100780.47;5029824;28;20073;-73
2023/09/24 01:40:42;;;;;;;31.80;29.90;;;;;;;21.03;100.00;100788.81;5030087;28;20061;-73
2023/09/24 01:43:18;;;;;;;41.88;39.35;;;;;;;20.89;100.00;100785.06;5034154;28;20071;-74
2023/09/24 01:45:47;;;;;;;38.72;36.40;;;;;;;20.57;100.00;100782.66;5033303;28;20515;-74
2023/09/24 01:48:15;;;;;;;31.67;29.45;;;;;;;20.41;100.00;100784.53;5033292;28;20107;-74
2023/09/24 01:50:42;;;;;;;30.40;28.40;;;;;;;20.39;100.00;100792.06;5033176;28;20065;-74
2023/09/24 01:53:09;;;;;;;36.15;33.95;;;;;;;20.28;100.00;100795.88;5029541;28;20058;-74
2023/09/24 01:55:37;;;;;;;35.80;33.33;;;;;;;20.72;100.00;100792.63;5034007;28;20052;-74
2023/09/24 01:58:06;;;;;;;37.33;35.22;;;;;;;21.07;100.00;100786.38;5026662;28;20120;-74
2023/09/24 02:00:33;;;;;;;35.08;32.13;;;;;;;21.83;100.00;100782.56;5028989;28;20054;-74
2023/09/24 02:03:05;;;;;;;33.33;31.42;;;;;;;21.53;100.00;100790.84;5032338;28;20052;-74
2023/09/24 02:05:35;;;;;;;32.13;30.23;;;;;;;21.42;100.00;100795.47;5027290;28;20049;-74
2023/09/24 02:08:06;;;;;;;28.60;26.80;;;;;;;21.32;100.00;100793.56;5033652;28;20053;-74
2023/09/24 02:10:33;;;;;;;32.70;30.73;;;;;;;21.43;100.00;100794.41;5033745;28;20115;-74
2023/09/24 02:13:00;;;;;;;29.40;27.70;;;;;;;21.26;100.00;100800.88;5033175;28;20050;-74
2023/09/24 02:15:29;;;;;;;32.17;30.35;;;;;;;21.02;100.00;100802.56;5033381;28;20053;-73
2023/09/24 02:17:56;;;;;;;27.48;25.77;;;;;;;20.90;100.00;100821.75;5033055;28;20060;-74
2023/09/24 02:20:24;;;;;;;27.98;26.27;;;;;;;20.61;100.00;100813.44;5033069;28;20049;-74
2023/09/24 02:22:57;;;;;;;31.48;29.58;;;;;;;20.69;100.00;100809.38;5033260;28;20072;-74
2023/09/24 02:25:24;;;;;;;48.05;29.60;;;;;;;20.79;100.00;100804.78;5032881;28;20081;-74
2023/09/24 02:27:53;;;;;;;31.42;29.63;;;;;;;20.80;100.00;100797.50;5032934;28;20120;-74
2023/09/24 02:30:28;;;;;;;30.75;28.95;;;;;;;20.64;100.00;100788.63;5032531;28;20514;-74
2023/09/24 02:32:57;;;;;;;29.15;27.45;;;;;;;20.41;100.00;100794.50;5030866;28;20056;-74
2023/09/24 02:35:26;;;;;;;29.95;28.17;;;;;;;20.16;100.00;100792.63;5030065;28;20060;-74
2023/09/24 02:37:54;;;;;;;29.95;28.02;;;;;;;20.07;100.00;100803.91;5033000;28;20178;-74
2023/09/24 02:40:26;;;;;;;30.92;29.13;;;;;;;19.90;100.00;100793.34;5031980;28;20049;-74
2023/09/24 02:42:55;;;;;;;33.80;31.80;;;;;;;19.87;100.00;100796.59;5032447;28;20049;-75
2023/09/24 02:45:22;;;;;;;32.65;30.55;;;;;;;19.51;100.00;100798.31;5032318;28;20045;-74
2023/09/24 02:47:52;;;;;;;33.95;31.77;;;;;;;19.10;100.00;100792.75;5032695;28;20050;-74
2023/09/24 02:50:22;;;;;;;33.05;31.05;;;;;;;19.38;100.00;100802.31;5024077;28;20054;-74
2023/09/24 02:52:59;;;;;;;31.90;29.80;;;;;;;19.86;100.00;100796.88;5027502;28;20045;-74
2023/09/24 02:55:28;;;;;;;34.20;32.40;;;;;;;20.02;100.00;100789.63;5032331;28;20049;-73
2023/09/24 02:58:03;;;;;;;31.80;30.17;;;;;;;20.10;100.00;100784.50;5032703;28;20574;-74
2023/09/24 03:00:36;;;;;;;34.15;32.25;;;;;;;20.11;100.00;100796.09;5030036;28;20045;-75
2023/09/24 03:03:10;;;;;;;32.90;31.13;;;;;;;19.99;100.00;100782.06;5024271;28;20565;-74
2023/09/24 03:05:38;;;;;;;35.83;33.72;;;;;;;19.90;100.00;100787.16;5032311;28;20056;-74
2023/09/24 03:08:09;;;;;;;31.15;29.35;;;;;;;19.84;100.00;100791.72;5031875;28;20144;-74
2023/09/24 03:10:35;;;;;;;36.13;34.03;;;;;;;19.45;100.00;100796.69;5031028;28;20546;-74
2023/09/24 03:13:04;;;;;;;32.75;30.27;;;;;;;19.50;100.00;100791.31;5031683;28;20081;-74
2023/09/24 03:15:32;;;;;;;30.80;29.00;;;;;;;19.31;100.00;100790.19;5029406;28;20057;-74
2023/09/24 03:18:02;;;;;;;27.70;26.00;;;;;;;19.06;100.00;100790.84;5025785;28;20049;-74
2023/09/24 03:20:30;;;;;;;28.60;26.80;;;;;;;19.35;100.00;100793.94;5030134;28;20053;-74
2023/09/24 03:23:02;;;;;;;26.92;25.13;;;;;;;19.37;100.00;100789.94;5033704;28;20053;-73
2023/09/24 03:25:35;;;;;;;28.75;26.88;;;;;;;19.26;100.00;100788.25;5039536;28;20052;-74
2023/09/24 03:28:02;;;;;;;28.65;26.75;;;;;;;19.18;100.00;100788.75;5012481;28;20081;-74
2023/09/24 03:30:37;;;;;;;30.23;28.40;;;;;;;19.13;100.00;100791.44;5033695;28;20045;-73
2023/09/24 03:33:04;;;;;;;34.67;32.13;;;;;;;18.79;100.00;100794.44;5030656;28;20466;-74
2023/09/24 03:35:31;;;;;;;30.92;29.02;;;;;;;19.17;100.00;100792.50;5030112;28;20046;-74
2023/09/24 03:38:00;;;;;;;30.30;28.27;;;;;;;19.23;100.00;100792.28;5023754;28;20054;-74
2023/09/24 03:40:29;;;;;;;32.42;29.95;;;;;;;19.30;100.00;100780.47;5037187;28;20047;-74
2023/09/24 03:42:59;;;;;;;27.33;25.63;;;;;;;19.25;100.00;100786.66;5040786;28;20055;-74
2023/09/24 03:45:35;;;;;;;28.58;26.88;;;;;;;19.35;100.00;100785.88;5025910;28;20046;-74
2023/09/24 03:48:02;;;;;;;31.45;29.70;;;;;;;19.55;100.00;100787.84;5041182;28;20041;-74
2023/09/24 03:50:29;;;;;;;33.35;31.27;;;;;;;19.62;100.00;100786.53;5024260;28;20045;-75
2023/09/24 03:52:56;;;;;;;32.53;30.65;;;;;;;19.59;100.00;100778.16;5026349;28;20048;-74
2023/09/24 03:55:25;;;;;;;26.52;24.85;;;;;;;19.52;100.00;100783.81;5029461;28;20100;-74
2023/09/24 03:57:52;;;;;;;27.83;25.90;;;;;;;19.54;100.00;100773.56;5027685;28;20499;-75
2023/09/24 04:00:20;;;;;;;28.35;26.45;;;;;;;19.54;100.00;100778.13;5031787;28;20495;-74
2023/09/24 04:02:48;;;;;;;27.08;25.35;;;;;;;19.14;100.00;100777.69;5035032;28;20053;-74
2023/09/24 04:05:17;;;;;;;22.98;21.48;;;;;;;19.28;100.00;100778.03;5019105;28;20050;-75
2023/09/24 04:07:49;;;;;;;24.48;22.77;;;;;;;19.38;100.00;100780.78;5031403;28;20469;-74
2023/09/24 04:10:16;;;;;;;22.92;21.42;;;;;;;19.09;100.00;100775.00;5021608;28;20053;-74
2023/09/24 04:12:46;;;;;;;22.20;20.50;;;;;;;18.95;100.00;100777.31;5046709;28;20045;-74
2023/09/24 04:15:15;;;;;;;21.30;19.80;;;;;;;19.01;100.00;100774.66;5035643;28;20052;-75
2023/09/24 04:17:42;;;;;;;22.65;21.10;;;;;;;19.16;100.00;100780.94;5035043;28;20065;-76
2023/09/24 04:20:15;;;;;;;28.70;22.00;;;;;;;19.25;100.00;100781.25;4675906;28;10000535;-75
2023/09/24 04:22:43;;;;;;;21.88;20.27;;;;;;;18.96;100.00;100778.13;5024070;28;20124;-74
2023/09/24 04:25:15;;;;;;;23.13;21.45;;;;;;;18.81;100.00;100792.28;5028772;28;20042;-75
2023/09/24 04:27:42;;;;;;;21.50;20.00;;;;;;;19.06;100.00;100801.59;5026284;28;20049;-75
2023/09/24 04:30:15;;;;;;;23.00;21.30;;;;;;;19.11;100.00;100791.66;5021985;28;20141;-76
2023/09/24 04:32:42;;;;;;;22.98;21.38;;;;;;;18.79;100.00;100790.94;5026660;28;20158;-75
2023/09/24 04:35:10;;;;;;;23.13;21.63;;;;;;;18.88;100.00;100792.06;5021380;28;20427;-75
2023/09/24 04:37:39;;;;;;;24.88;22.70;;;;;;;18.88;100.00;100786.69;5019248;28;20046;-75
2023/09/24 04:40:14;;;;;;;22.33;20.73;;;;;;;18.99;100.00;100789.19;5026536;28;20084;-75
2023/09/24 04:42:42;;;;;;;21.75;20.35;;;;;;;19.40;100.00;100794.78;5028917;28;20057;-74
2023/09/24 04:45:11;;;;;;;20.13;18.73;;;;;;;19.68;100.00;100798.16;5026964;28;20054;-75
2023/09/24 04:47:38;;;;;;;21.48;20.08;;;;;;;20.08;100.00;100797.44;5022275;28;20041;-75
2023/09/24 04:50:06;;;;;;;21.45;19.95;;;;;;;20.36;100.00;100785.34;5023724;28;20503;-76
2023/09/24 04:52:35;;;;;;;21.80;20.20;;;;;;;20.32;100.00;100789.66;5021650;28;20774;-75
2023/09/24 04:55:05;;;;;;;21.42;20.02;;;;;;;20.48;100.00;100789.66;5026148;28;20155;-75
2023/09/24 04:57:32;;;;;;;20.52;18.88;;;;;;;20.58;100.00;100789.69;5028626;28;20045;-75
2023/09/24 05:00:07;;;;;;;23.35;21.65;;;;;;;20.72;100.00;100798.84;5024403;28;20049;-75
2023/09/24 05:02:35;;;;;;;20.10;18.60;;;;;;;20.78;100.00;100799.66;5029166;28;20061;-74
2023/09/24 05:05:03;;;;;;;21.98;20.45;;;;;;;23.67;100.00;100788.97;5022530;28;20052;-75
2023/09/24 05:07:30;;;;;;;20.35;18.75;;;;;;;23.80;100.00;100792.91;5027860;28;20049;-78
2023/09/24 05:09:57;;;;;;;20.50;18.90;;;;;;;22.95;100.00;100793.63;5029181;28;20541;-75
2023/09/24 05:12:23;;;;;;;19.70;17.92;;;;;;;21.76;100.00;100808.31;5019075;28;20064;-75
2023/09/24 05:14:50;;;;;;;21.60;20.10;;;;;;;21.78;100.00;100806.09;5029778;28;20052;-74
2023/09/24 05:17:17;;;;;;;22.35;20.75;;;;;;;21.81;100.00;100805.56;5025524;28;20046;-74
2023/09/24 05:19:45;;;;;;;28.67;21.77;;;;;;;21.79;100.00;100807.75;5028477;28;20053;-74
2023/09/24 05:22:13;;;;;;;22.35;20.85;;;;;;;21.84;100.00;100807.69;5032373;28;20060;-73
2023/09/24 05:24:40;;;;;;;24.27;22.52;;;;;;;21.91;100.00;100802.81;5030081;28;20049;-73
2023/09/24 05:27:08;;;;;;;21.08;19.60;;;;;;;22.05;100.00;100808.38;5031060;28;20045;-73
2023/09/24 05:29:35;;;;;;;22.60;21.10;;;;;;;21.93;100.00;100798.72;5034128;28;20045;-73
2023/09/24 05:32:02;;;;;;;20.63;19.23;;;;;;;22.03;100.00;100805.97;5033358;28;20049;-75
2023/09/24 05:34:29;;;;;;;20.15;18.50;;;;;;;22.28;100.00;100806.91;5030527;28;20048;-73
2023/09/24 05:37:04;;;;;;;20.20;18.70;;;;;;;22.17;100.00;100814.28;5032900;28;20048;-74
2023/09/24 05:39:36;;;;;;;22.17;20.67;;;;;;;22.36;100.00;100806.28;5023818;28;20087;-73
2023/09/24 05:42:03;;;;;;;21.35;19.85;;;;;;;22.61;100.00;100806.09;5034266;28;20053;-74
2023/09/24 05:44:32;;;;;;;23.60;22.00;;;;;;;22.74;100.00;100810.03;5048583;28;20052;-74
2023/09/24 05:46:59;;;;;;;22.70;21.20;;;;;;;22.89;100.00;100805.59;5037893;28;20048;-73
2023/09/24 05:49:26;;;;;;;21.50;20.00;;;;;;;22.85;100.00;100819.69;5036315;28;20060;-73
2023/09/24 05:51:55;;;;;;;23.20;21.40;;;;;;;23.25;100.00;100819.59;5041115;28;20045;-74
2023/09/24 05:54:23;;;;;;;21.35;19.85;;;;;;;23.14;100.00;100818.06;5029496;28;20052;-73
2023/09/24 05:56:56;;;;;;;20.80;19.30;;;;;;;23.03;100.00;100825.53;5028347;28;20069;-74
2023/09/24 05:59:23;;;;;;;21.92;20.35;;;;;;;23.22;100.00;100829.09;5034741;28;20044;-75
2023/09/24 06:01:51;;;;;;;22.48;20.88;;;;;;;23.60;100.00;100831.91;5041273;28;20454;-75
2023/09/24 06:04:18;;;;;;;18.80;17.30;;;;;;;23.95;100.00;100833.38;5029714;28;20049;-76
2023/09/24 06:06:45;;;;;;;19.65;18.15;;;;;;;23.84;100.00;100828.38;5028916;28;20050;-75
2023/09/24 06:09:12;;;;;;;18.98;17.48;;;;;;;24.10;100.00;100839.69;5036632;28;20053;-76
2023/09/24 06:11:40;;;;;;;21.50;20.00;;;;;;;24.05;100.00;100832.41;5031308;28;20124;-75
2023/09/24 06:14:09;;;;;;;22.00;20.23;;;;;;;24.27;100.00;100826.41;5033200;28;20060;-75
2023/09/24 06:16:36;;;;;;;19.50;18.10;;;;;;;24.61;100.00;100830.78;5030591;28;20045;-76
2023/09/24 06:19:07;;;;;;;19.63;18.23;;;;;;;24.92;100.00;100834.56;5042831;28;20053;-75
2023/09/24 06:21:39;;;;;;;19.98;18.48;;;;;;;24.82;100.00;100836.66;5025228;28;20065;-76
2023/09/24 06:24:07;;;;;;;19.83;18.33;;;;;;;24.77;100.00;100845.69;5026611;28;20045;-75
2023/09/24 06:26:35;;;;;;;20.55;19.15;;;;;;;24.94;100.00;100838.91;5029200;28;20051;-75
2023/09/24 06:29:03;;;;;;;21.40;19.75;;;;;;;25.31;100.00;100843.38;5033015;28;20045;-75
2023/09/24 06:31:36;;;;;;;20.23;18.90;;;;;;;25.45;100.00;100846.13;5033027;28;20053;-75
2023/09/24 06:34:05;;;;;;;20.35;18.95;;;;;;;25.45;100.00;100840.69;5032236;28;20037;-74
2023/09/24 06:36:32;;;;;;;19.55;18.15;;;;;;;25.76;100.00;100847.09;5023087;28;20142;-73
2023/09/24 06:38:59;;;;;;;21.95;19.42;;;;;;;25.74;100.00;100845.78;5032613;28;20526;-74
2023/09/24 06:41:26;;;;;;;20.27;18.88;;;;;;;25.84;100.00;100842.88;5033394;28;20052;-76
2023/09/24 06:43:53;;;;;;;21.05;19.55;;;;;;;25.97;100.00;100843.97;5030159;28;20048;-74
2023/09/24 06:46:25;;;;;;;20.48;18.98;;;;;;;26.06;100.00;100850.28;5030929;28;20517;-76
2023/09/24 06:48:52;;;;;;;22.45;20.73;;;;;;;26.33;100.00;100848.59;5027545;28;20072;-76
2023/09/24 06:51:20;;;;;;;19.08;17.58;;;;;;;26.51;100.00;100847.63;5032955;28;20077;-75
2023/09/24 06:53:50;;;;;;;23.95;21.90;;;;;;;26.39;100.00;100848.16;5026209;28;20446;-76
2023/09/24 06:56:26;;;;;;;20.90;19.40;;;;;;;26.62;100.00;100840.78;5032496;28;20069;-76
2023/09/24 06:58:53;;;;;;;21.80;20.23;;;;;;;26.70;100.00;100847.41;5032976;28;20423;-74
2023/09/24 07:01:21;;;;;;;20.77;19.27;;;;;;;26.96;100.00;100853.03;5032897;28;20049;-76
2023/09/24 07:03:51;;;;;;;21.02;19.42;;;;;;;27.13;100.00;100855.00;5032142;28;20056;-76
2023/09/24 07:06:18;;;;;;;20.58;19.08;;;;;;;27.09;100.00;100851.31;5032694;28;20058;-76
2023/09/24 07:08:45;;;;;;;22.70;21.10;;;;;;;27.30;100.00;100857.84;5032015;28;20604;-75
2023/09/24 07:11:26;;;;;;;23.30;21.70;;;;;;;27.08;100.00;100850.53;5032480;28;20385;-75
2023/09/24 07:13:53;;;;;;;22.98;21.38;;;;;;;27.41;100.00;100839.25;5031532;28;20053;-75
2023/09/24 07:16:22;;;;;;;21.95;20.25;;;;;;;27.35;100.00;100845.97;5031211;28;20103;-75
2023/09/24 07:18:51;;;;;;;22.27;20.67;;;;;;;27.38;100.00;100832.53;5030448;28;20477;-76
2023/09/24 07:21:19;;;;;;;20.35;18.85;;;;;;;27.60;100.00;100852.66;5031046;28;20054;-75
2023/09/24 07:23:47;;;;;;;23.08;21.58;;;;;;;27.69;100.00;100845.28;5031150;28;20076;-74
2023/09/24 07:26:14;;;;;;;21.70;20.15;;;;;;;27.91;100.00;100849.03;5030625;28;20136;-75
2023/09/24 07:28:42;;;;;;;22.52;20.83;;;;;;;28.19;100.00;100846.81;5031377;28;20497;-75
2023/09/24 07:31:17;;;;;;;22.58;20.98;;;;;;;28.44;100.00;100848.75;5030901;28;20068;-75
2023/09/24 07:33:44;;;;;;;22.10;20.50;;;;;;;28.19;100.00;100846.81;5030441;28;20045;-75
2023/09/24 07:36:13;;;;;;;22.55;20.65;;;;;;;28.47;100.00;100841.81;5029530;28;20099;-74
2023/09/24 07:38:40;;;;;;;23.55;21.75;;;;;;;28.65;100.00;100846.13;5030760;28;20045;-75
2023/09/24 07:41:08;;;;;;;24.10;21.65;;;;;;;28.62;100.00;100848.72;5030229;28;20411;-74
2023/09/24 07:43:35;;;;;;;23.50;21.90;;;;;;;28.63;100.00;100847.59;5030479;28;20061;-75
2023/09/24 07:46:03;;;;;;;23.95;22.25;;;;;;;28.57;100.00;100846.97;5030539;28;20053;-75
2023/09/24 07:48:31;;;;;;;24.63;22.52;;;;;;;28.90;100.00;100857.34;5030262;28;20050;-75
2023/09/24 07:50:59;;;;;;;23.88;22.08;;;;;;;28.74;100.00;100862.50;5030929;28;20494;-74
2023/09/24 07:53:27;;;;;;;23.40;21.60;;;;;;;28.39;100.00;100865.28;5025338;28;20302;-75
2023/09/24 07:55:57;;;;;;;24.08;22.27;;;;;;;29.42;100.00;100877.09;5030542;28;20049;-74
2023/09/24 07:58:25;;;;;;;23.90;22.20;;;;;;;29.58;100.00;100876.53;5030524;28;20431;-75
2023/09/24 08:00:53;;;;;;;22.80;21.08;;;;;;;28.94;100.00;100880.16;5028939;28;20049;-75
2023/09/24 08:03:20;;;;;;;22.30;20.60;;;;;;;29.94;100.00;100872.47;5030216;28;20103;-75
2023/09/24 08:05:47;;;;;;;22.60;20.80;;;;;;;29.81;100.00;100874.34;5030135;28;20053;-74
2023/09/24 08:08:14;;;;;;;24.58;22.67;;;;;;;30.30;100.00;100861.75;5030057;28;20438;-76
2023/09/24 08:10:42;;;;;;;24.17;22.38;;;;;;;30.19;100.00;100852.28;5030614;28;20050;-74
2023/09/24 08:13:09;;;;;;;22.83;20.92;;;;;;;30.27;100.00;100861.63;5029970;28;20056;-75
2023/09/24 08:15:36;;;;;;;21.40;19.75;;;;;;;31.10;100.00;100844.16;5029662;28;20064;-75
2023/09/24 08:18:08;;;;;;;23.25;21.45;;;;;;;30.26;100.00;100849.88;5030305;28;20430;-75
2023/09/24 08:20:36;;;;;;;25.42;23.52;;;;;;;30.89;100.00;100852.47;5030120;28;20119;-75
2023/09/24 08:23:03;;;;;;;26.15;24.35;;;;;;;30.68;100.00;100844.31;5029308;28;20055;-75
2023/09/24 08:25:30;;;;;;;24.63;22.83;;;;;;;29.69;100.00;100849.63;5030417;28;20477;-75
2023/09/24 08:27:58;;;;;;;24.42;22.67;;;;;;;30.22;100.00;100854.41;5027188;28;20045;-75
2023/09/24 08:30:27;;;;;;;25.58;23.67;;;;;;;29.29;100.00;100850.78;5029726;28;20053;-75
2023/09/24 08:32:54;;;;;;;24.60;22.90;;;;;;;31.04;100.00;100842.78;5029583;28;20045;-75
2023/09/24 08:35:22;;;;;;;22.63;20.92;;;;;;;29.96;100.00;100851.84;5030312;28;20055;-75
2023/09/24 08:37:49;;;;;;;23.70;22.00;;;;;;;30.83;100.00;100836.56;5029766;28;20053;-75
2023/09/24 08:40:16;;;;;;;23.60;21.90;;;;;;;30.44;100.00;100839.56;5029858;28;20042;-75
2023/09/24 08:42:46;;;;;;;23.92;22.23;;;;;;;31.27;100.00;100837.66;5029249;28;20069;-75
2023/09/24 08:45:18;;;;;;;25.60;23.80;;;;;;;30.23;100.00;100852.44;5030072;28;20050;-75
2023/09/24 08:47:46;;;;;;;25.00;23.20;;;;;;;31.22;100.00;100837.88;5028274;28;20423;-75
2023/09/24 08:50:14;;;;;;;25.30;23.50;;;;;;;31.25;100.00;100828.94;5029148;28;20438;-75
2023/09/24 08:52:42;;;;;;;26.02;23.70;;;;;;;30.34;100.00;100840.75;5029170;28;20057;-76
2023/09/24 08:55:10;;;;;;;24.83;23.02;;;;;;;31.12;100.00;100835.59;5023718;28;20057;-75
2023/09/24 08:57:40;;;;;;;24.10;22.30;;;;;;;31.75;100.00;100830.53;5029190;28;20045;-75
2023/09/24 09:00:09;;;;;;;24.35;22.45;;;;;;;32.00;100.00;100833.25;5028149;28;20053;-75
2023/09/24 09:02:38;;;;;;;24.58;22.67;;;;;;;32.39;100.00;100826.09;5029385;28;20565;-75
2023/09/24 09:05:07;;;;;;;24.75;22.75;;;;;;;33.38;100.00;100821.56;5029046;28;20471;-75
2023/09/24 09:07:34;;;;;;;24.80;22.67;;;;;;;32.59;100.00;100827.06;5029975;28;20482;-75
2023/09/24 09:10:03;;;;;;;24.30;22.40;;;;;;;31.19;100.00;100822.09;5028950;28;20045;-75
2023/09/24 09:12:29;;;;;;;24.20;22.30;;;;;;;32.65;100.00;100822.06;5029198;28;20064;-74
2023/09/24 09:14:57;;;;;;;23.00;20.85;;;;;;;33.65;99.78;100824.50;5029534;28;20045;-75
2023/09/24 09:17:24;;;;;;;23.35;21.40;;;;;;;33.99;83.28;100822.88;5029182;28;20132;-75
2023/09/24 09:19:56;;;;;;;23.52;21.73;;;;;;;34.28;82.03;100823.47;5029163;28;20135;-75
2023/09/24 09:22:24;;;;;;;28.05;24.13;;;;;;;34.19;80.26;100831.97;5039732;28;20045;-75
2023/09/24 09:25:04;;;;;;;23.48;21.58;;;;;;;34.10;78.07;100831.38;5044588;28;20061;-75
2023/09/24 09:27:32;;;;;;;23.25;21.25;;;;;;;34.33;76.47;100823.19;5041374;28;20045;-74
2023/09/24 09:30:12;;;;;;;24.75;22.35;;;;;;;33.62;83.30;100828.00;5041241;28;20053;-75
2023/09/24 09:32:39;;;;;;;25.10;22.90;;;;;;;34.13;77.32;100823.22;5036128;28;20045;-74
2023/09/24 09:35:08;;;;;;;23.92;21.88;;;;;;;34.30;77.42;100821.94;5035460;28;20494;-75
2023/09/24 09:37:35;;;;;;;24.40;22.45;;;;;;;34.77;72.13;100814.53;5036737;28;20053;-75
2023/09/24 09:40:03;;;;;;;24.98;22.88;;;;;;;34.46;77.88;100813.56;5037621;28;20045;-74
2023/09/24 09:42:33;;;;;;;27.23;24.65;;;;;;;35.06;69.67;100816.63;5023162;28;20702;-74
2023/09/24 09:45:05;;;;;;;24.63;22.63;;;;;;;35.03;68.47;100822.06;5039528;28;20056;-75
2023/09/24 09:47:37;;;;;;;25.52;23.20;;;;;;;34.16;74.19;100821.66;5034191;28;20055;-74
2023/09/24 09:50:08;;;;;;;25.30;23.30;;;;;;;34.57;73.60;100814.59;5036615;28;20048;-74
2023/09/24 09:52:44;;;;;;;27.02;24.48;;;;;;;34.67;73.18;100810.44;5036080;28;20052;-74
2023/09/24 09:55:10;;;;;;;25.50;23.10;;;;;;;35.16;71.24;100814.41;5031726;28;20500;-74
2023/09/24 09:57:39;;;;;;;25.80;23.52;;;;;;;35.60;64.06;100816.66;5040093;28;20506;-74
2023/09/24 10:00:10;;;;;;;24.67;22.73;;;;;;;33.59;81.57;100820.44;5041092;28;20081;-74
2023/09/24 10:02:39;;;;;;;24.77;22.87;;;;;;;34.42;76.46;100813.50;5045003;28;20496;-74
2023/09/24 10:05:09;;;;;;;25.10;23.02;;;;;;;34.46;74.85;100826.56;5046061;28;20441;-74
2023/09/24 10:07:37;;;;;;;25.23;23.23;;;;;;;34.09;80.72;100824.28;5049123;28;20550;-75
2023/09/24 10:10:42;;;;;;;24.73;22.83;;;;;;;35.65;63.20;100808.03;5040490;28;20102;-74
2023/09/24 10:13:43;;;;;;;24.98;23.08;;;;;;;34.84;69.62;100812.69;5035240;28;20053;-75
2023/09/24 10:16:37;;;;;;;25.20;23.30;;;;;;;35.70;58.62;100805.72;5042107;28;20057;-74
2023/09/24 10:19:06;;;;;;;24.55;22.65;;;;;;;35.53;58.73;100807.06;5041778;28;20045;-75
2023/09/24 10:21:35;;;;;;;24.90;23.00;;;;;;;35.16;64.35;100790.38;5040897;28;20051;-74
2023/09/24 10:24:32;;;;;;;26.00;24.00;;;;;;;35.13;63.55;100801.34;5047054;28;20052;-74
2023/09/24 10:27:03;;;;;;;25.77;23.88;;;;;;;33.80;76.69;100793.41;5041349;28;20061;-75
2023/09/24 10:30:05;;;;;;;24.10;22.30;;;;;;;35.14;65.27;100792.69;5040003;28;20127;-75
2023/09/24 10:32:43;;;;;;;;;;;;;;;35.77;61.92;100775.44;5037419;28;20140;-75
2023/09/24 10:35:11;;;;;;;25.98;24.08;;;;;;;36.50;53.64;100793.63;5039159;28;19924;-75
2023/09/24 10:37:59;;;;;;;27.50;25.50;;;;;;;36.58;50.68;100787.75;5039773;28;20449;-74
2023/09/24 10:40:28;;;;;;;25.55;23.35;;;;;;;35.98;52.31;100788.72;5045170;28;20442;-75
2023/09/24 10:43:27;;;;;;;27.98;25.75;;;;;;;35.64;57.27;100782.34;5044915;28;20592;-75
2023/09/24 10:46:28;;;;;;;26.52;24.42;;;;;;;34.88;60.07;100779.66;5041358;28;20052;-75
2023/09/24 10:48:55;;;;;;;24.92;23.02;;;;;;;36.17;54.29;100776.69;5041512;28;20052;-74
2023/09/24 10:51:22;;;;;;;26.25;24.25;;;;;;;36.54;47.24;100777.88;5041036;28;20045;-75
2023/09/24 10:53:49;;;;;;;27.10;24.63;;;;;;;36.39;46.46;100771.38;5036698;28;20049;-75
2023/09/24 10:56:16;;;;;;;26.02;23.92;;;;;;;37.02;43.92;100769.56;5026835;28;20049;-75
2023/09/24 10:58:49;;;;;;;25.80;23.40;;;;;;;37.23;45.38;100764.16;5045919;28;20395;-74
2023/09/24 11:01:16;;;;;;;25.25;23.20;;;;;;;36.05;51.17;100765.91;5038235;28;20225;-75
2023/09/24 11:03:44;;;;;;;26.23;24.13;;;;;;;36.40;51.27;100775.72;5031461;28;20053;-75
2023/09/24 11:06:11;;;;;;;26.58;24.58;;;;;;;36.77;45.01;100761.88;5032975;28;20049;-74
2023/09/24 11:08:38;;;;;;;27.23;25.02;;;;;;;36.35;43.86;100770.56;5028566;28;20045;-75
2023/09/24 11:11:05;;;;;;;28.92;26.27;;;;;;;36.91;46.11;100759.19;5033159;28;20054;-75
2023/09/24 11:13:32;;;;;;;27.88;25.67;;;;;;;35.92;50.50;100762.59;5036424;28;20537;-75